createdAt,value
2019-06-20T00:02:03.906Z,5.10
2019-06-20T00:04:31.348Z,5.87
2019-06-20T00:06:58.764Z,8.33
2019-06-20T00:09:26.208Z,5.92
2019-06-20T00:11:53.618Z,9.85
2019-06-20T00:14:21.090Z,9.40
2019-06-20T00:16:48.554Z,4.87
2019-06-20T00:19:15.972Z,6.90
2019-06-20T00:21:43.637Z,5.37
2019-06-20T00:24:11.058Z,5.47
2019-06-20T00:26:39.003Z,4.28
2019-06-20T00:29:07.111Z,4.45
2019-06-20T00:31:34.540Z,10.40
2019-06-20T00:34:02.207Z,6.75
2019-06-20T00:36:29.876Z,8.13
2019-06-20T00:38:57.541Z,6.12
2019-06-20T00:41:25.244Z,10.88
2019-06-20T00:43:52.661Z,6.80
2019-06-20T00:46:20.104Z,4.90
2019-06-20T00:48:47.754Z,8.35
2019-06-20T00:51:15.193Z,11.12
2019-06-20T00:53:42.603Z,9.28
2019-06-20T00:56:12.949Z,7.53
2019-06-20T00:58:40.370Z,5.58
2019-06-20T01:01:08.037Z,10.15
2019-06-20T01:03:36.209Z,7.20
2019-06-20T01:06:03.641Z,4.20
2019-06-20T01:08:31.050Z,5.55
2019-06-20T01:10:58.486Z,4.50
2019-06-20T01:13:33.766Z,4.60
2019-06-20T01:15:55.061Z,8.55
2019-06-20T01:18:22.486Z,8.73
2019-06-20T01:20:49.906Z,5.55
2019-06-20T01:23:17.316Z,6.70
2019-06-20T01:25:44.825Z,7.85
2019-06-20T01:28:12.227Z,3.80
2019-06-20T01:30:39.649Z,5.37
2019-06-20T01:33:07.321Z,7.87
2019-06-20T01:35:34.730Z,3.70
2019-06-20T01:38:02.228Z,4.53
2019-06-20T01:40:29.660Z,3.95
2019-06-20T01:42:57.092Z,10.48
2019-06-20T01:45:24.594Z,4.47
2019-06-20T01:47:52.042Z,6.40
2019-06-20T01:50:19.454Z,4.83
2019-06-20T01:52:46.985Z,3.92
2019-06-20T01:55:14.438Z,4.62
2019-06-20T01:57:41.870Z,5.05
2019-06-20T02:00:10.049Z,4.83
2019-06-20T02:02:37.472Z,7.85
2019-06-20T02:05:05.654Z,4.25
2019-06-20T02:07:33.304Z,4.42
2019-06-20T02:10:00.722Z,4.10
2019-06-20T02:12:28.144Z,3.00
2019-06-20T02:14:56.341Z,3.87
2019-06-20T02:17:23.768Z,4.20
2019-06-20T02:19:51.891Z,7.55
2019-06-20T02:22:19.319Z,4.97
2019-06-20T02:24:46.723Z,3.77
2019-06-20T02:27:14.141Z,3.25
2019-06-20T02:29:41.565Z,3.70
2019-06-20T02:32:09.093Z,3.35
2019-06-20T02:34:36.494Z,3.77
2019-06-20T02:37:03.908Z,7.10
2019-06-20T02:39:31.317Z,4.12
2019-06-20T02:41:58.738Z,5.95
2019-06-20T02:44:30.408Z,7.70
2019-06-20T02:46:55.295Z,3.42
2019-06-20T02:49:22.777Z,5.05
2019-06-20T02:51:50.209Z,4.37
2019-06-20T02:54:17.684Z,4.30
2019-06-20T02:56:45.093Z,5.35
2019-06-20T02:59:12.518Z,3.72
2019-06-20T03:01:39.934Z,6.58
2019-06-20T03:04:07.359Z,5.42
2019-06-20T03:06:34.836Z,5.17
2019-06-20T03:09:02.257Z,4.83
2019-06-20T03:11:29.665Z,5.60
2019-06-20T03:13:57.101Z,4.15
2019-06-20T03:16:24.989Z,6.90
2019-06-20T03:18:52.481Z,3.92
2019-06-20T03:21:19.899Z,3.77
2019-06-20T03:23:47.320Z,7.75
2019-06-20T03:26:14.742Z,6.47
2019-06-20T03:28:42.405Z,4.22
2019-06-20T03:31:09.833Z,4.10
2019-06-20T03:33:37.255Z,4.30
2019-06-20T03:36:04.668Z,5.87
2019-06-20T03:38:32.104Z,3.60
2019-06-20T03:40:59.529Z,4.58
2019-06-20T03:43:26.950Z,7.72
2019-06-20T03:45:54.618Z,4.62
2019-06-20T03:48:22.822Z,5.87
2019-06-20T03:50:50.220Z,7.15
2019-06-20T03:53:17.649Z,6.08
2019-06-20T03:55:45.067Z,4.33
2019-06-20T03:58:12.488Z,5.87
2019-06-20T04:00:39.904Z,9.48
2019-06-20T04:03:07.324Z,4.78
2019-06-20T04:05:34.807Z,5.50
2019-06-20T04:08:02.217Z,9.08
2019-06-20T04:10:29.644Z,4.40
2019-06-20T04:12:57.053Z,7.80
2019-06-20T04:15:24.477Z,5.25
2019-06-20T04:17:51.896Z,5.67
2019-06-20T04:20:19.353Z,4.37
2019-06-20T04:22:46.761Z,6.37
2019-06-20T04:25:14.245Z,8.70
2019-06-20T04:27:41.671Z,5.03
2019-06-20T04:30:09.108Z,7.70
2019-06-20T04:32:36.521Z,4.70
2019-06-20T04:35:04.994Z,4.83
2019-06-20T04:37:32.413Z,6.45
2019-06-20T04:39:59.847Z,6.42
2019-06-20T04:42:27.252Z,5.80
2019-06-20T04:44:54.678Z,5.12
2019-06-20T04:47:22.092Z,6.12
2019-06-20T04:49:49.521Z,4.28
2019-06-20T04:52:16.939Z,7.80
2019-06-20T04:54:44.376Z,7.12
2019-06-20T04:57:11.794Z,5.20
2019-06-20T04:59:39.290Z,5.22
2019-06-20T05:02:06.712Z,4.83
2019-06-20T05:04:34.148Z,9.25
2019-06-20T05:07:07.317Z,6.60
2019-06-20T05:09:35.062Z,4.78
2019-06-20T05:12:02.480Z,6.40
2019-06-20T05:14:29.924Z,7.65
2019-06-20T05:16:57.333Z,4.70
2019-06-20T05:19:24.756Z,3.45
2019-06-20T05:21:52.194Z,4.15
2019-06-20T05:24:19.673Z,7.10
2019-06-20T05:27:12.563Z,4.10
2019-06-20T05:29:29.730Z,3.95
2019-06-20T05:31:57.398Z,6.35
2019-06-20T05:34:24.887Z,4.37
2019-06-20T05:36:52.297Z,4.40
2019-06-20T05:39:19.704Z,6.10
2019-06-20T05:41:47.186Z,4.92
2019-06-20T05:44:14.870Z,5.15
2019-06-20T05:46:47.233Z,5.37
2019-06-20T05:49:14.727Z,4.33
2019-06-20T05:52:01.374Z,5.80
2019-06-20T05:54:30.425Z,5.47
2019-06-20T05:56:57.841Z,5.28
2019-06-20T05:59:25.755Z,7.25
2019-06-20T06:01:56.310Z,4.72
2019-06-20T06:06:58.178Z,6.62
2019-06-20T06:09:25.829Z,7.55
2019-06-20T06:11:53.277Z,4.97
2019-06-20T06:14:20.761Z,5.47
2019-06-20T06:16:48.203Z,5.40
2019-06-20T06:19:15.614Z,5.10
2019-06-20T06:21:43.117Z,4.65
2019-06-20T06:24:10.533Z,4.80
2019-06-20T06:26:37.957Z,6.85
2019-06-20T06:29:05.371Z,5.10
2019-06-20T06:31:32.785Z,4.25
2019-06-20T06:34:00.266Z,6.12
2019-06-20T06:36:27.701Z,7.50
2019-06-20T06:38:55.117Z,5.08
2019-06-20T06:41:22.544Z,4.80
2019-06-20T06:43:50.214Z,5.28
2019-06-20T06:46:17.639Z,5.97
2019-06-20T06:48:45.066Z,6.78
2019-06-20T06:51:12.568Z,6.28
2019-06-20T06:53:39.985Z,7.47
2019-06-20T06:56:07.422Z,6.08
2019-06-20T06:58:34.824Z,5.00
2019-06-20T07:01:02.342Z,4.75
2019-06-20T07:03:29.859Z,6.75
2019-06-20T07:05:57.529Z,6.08
2019-06-20T07:08:24.953Z,4.67
2019-06-20T07:10:52.393Z,6.40
2019-06-20T07:13:19.869Z,11.60
2019-06-20T07:15:47.533Z,6.33
2019-06-20T07:18:14.957Z,7.20
2019-06-20T07:20:42.380Z,6.53
2019-06-20T07:23:09.809Z,4.28
2019-06-20T07:25:37.398Z,5.00
2019-06-20T07:28:04.810Z,5.17
2019-06-20T07:30:32.487Z,5.70
2019-06-20T07:33:00.215Z,9.38
2019-06-20T07:35:27.990Z,6.55
2019-06-20T07:37:55.461Z,5.58
2019-06-20T07:40:22.889Z,10.00
2019-06-20T07:42:50.374Z,7.67
2019-06-20T07:45:19.701Z,6.53
2019-06-20T07:47:47.195Z,7.97
2019-06-20T07:50:14.606Z,7.37
2019-06-20T07:52:42.029Z,7.37
2019-06-20T07:55:10.909Z,7.45
2019-06-20T07:57:38.548Z,5.78
2019-06-20T08:00:07.188Z,5.75
2019-06-20T08:02:34.599Z,5.97
2019-06-20T08:05:02.304Z,6.83
2019-06-20T08:07:29.795Z,6.55
2019-06-20T08:09:57.447Z,6.85
2019-06-20T08:12:24.876Z,12.78
2019-06-20T08:14:52.286Z,9.03
2019-06-20T08:17:34.346Z,6.67
2019-06-20T08:19:49.092Z,8.43
2019-06-20T08:22:16.521Z,8.75
2019-06-20T08:24:43.966Z,12.82
2019-06-20T08:27:14.870Z,10.88
2019-06-20T08:29:41.853Z,15.78
2019-06-20T08:32:09.351Z,11.50
2019-06-20T08:34:36.880Z,7.47
2019-06-20T08:37:04.429Z,8.53
2019-06-20T08:39:32.109Z,5.60
2019-06-20T08:42:00.491Z,7.10
2019-06-20T08:44:28.031Z,6.10
2019-06-20T08:46:56.591Z,8.90
2019-06-20T08:49:24.599Z,7.25
2019-06-20T08:51:52.299Z,7.72
2019-06-20T08:54:19.869Z,6.62
2019-06-20T08:56:47.287Z,7.05
2019-06-20T08:59:23.905Z,5.00
2019-06-20T09:01:43.931Z,8.18
2019-06-20T09:04:11.591Z,5.03
2019-06-20T09:06:39.008Z,7.25
2019-06-20T09:09:06.670Z,6.40
2019-06-20T09:11:34.084Z,6.03
2019-06-20T09:14:01.586Z,5.78
2019-06-20T09:16:28.997Z,6.12
2019-06-20T09:18:56.755Z,7.28
2019-06-20T09:21:24.211Z,5.12
2019-06-20T09:23:53.823Z,5.12
2019-06-20T09:26:20.773Z,5.53
2019-06-20T09:28:48.202Z,6.72
2019-06-20T09:31:15.689Z,6.83
2019-06-20T09:33:43.121Z,5.87
2019-06-20T09:36:10.536Z,4.92
2019-06-20T09:38:37.981Z,5.78
2019-06-20T09:41:05.450Z,4.70
2019-06-20T09:43:32.881Z,4.35
2019-06-20T09:46:00.293Z,5.03
2019-06-20T09:48:27.968Z,3.77
2019-06-20T09:50:56.923Z,2.67
2019-06-20T09:53:24.485Z,5.30
2019-06-20T09:55:51.923Z,5.35
2019-06-20T09:58:19.408Z,2.98
2019-06-20T10:00:48.174Z,4.37
2019-06-20T10:03:15.969Z,4.00
2019-06-20T10:05:43.390Z,4.67
2019-06-20T10:08:10.818Z,7.33
2019-06-20T10:10:38.490Z,3.02
2019-06-20T10:13:05.981Z,5.53
2019-06-20T10:15:35.807Z,9.25
2019-06-20T10:18:03.332Z,4.50
2019-06-20T10:20:30.740Z,1.95
2019-06-20T10:22:58.184Z,2.62
2019-06-20T10:25:25.587Z,3.25
2019-06-20T10:27:53.642Z,2.55
2019-06-20T10:30:22.763Z,3.72
2019-06-20T10:32:50.997Z,5.08
2019-06-20T10:35:18.496Z,3.20
2019-06-20T10:37:47.154Z,3.05
2019-06-20T10:40:15.049Z,2.67
2019-06-20T10:42:44.399Z,3.02
2019-06-20T10:45:13.185Z,2.12
2019-06-20T10:47:40.599Z,4.15
2019-06-20T10:50:08.018Z,2.45
2019-06-20T10:52:35.432Z,2.40
2019-06-20T10:55:06.583Z,2.10
2019-06-20T10:57:34.245Z,2.72
2019-06-20T11:00:01.720Z,2.15
2019-06-20T11:02:29.163Z,2.00
2019-06-20T11:04:56.593Z,2.08
2019-06-20T11:07:24.005Z,2.22
2019-06-20T11:09:51.431Z,2.95
2019-06-20T11:12:19.089Z,2.27
2019-06-20T11:14:46.510Z,2.40
2019-06-20T11:17:13.920Z,2.77
2019-06-20T11:19:41.636Z,2.77
2019-06-20T11:22:09.041Z,4.45
2019-06-20T11:24:37.641Z,1.85
2019-06-20T11:27:05.600Z,3.65
2019-06-20T11:29:36.863Z,2.17
2019-06-20T11:32:04.765Z,2.60
2019-06-20T11:34:32.196Z,2.42
2019-06-20T11:36:59.608Z,2.10
2019-06-20T11:39:27.043Z,3.12
2019-06-20T11:41:54.462Z,2.35
2019-06-20T11:44:21.899Z,4.85
2019-06-20T11:46:51.562Z,2.27
2019-06-20T11:49:19.049Z,2.95
2019-06-20T11:51:46.688Z,3.17
2019-06-20T11:54:15.072Z,2.10
2019-06-20T11:56:43.125Z,2.50
2019-06-20T11:59:10.566Z,2.08
2019-06-20T12:01:41.228Z,2.40
2019-06-20T12:04:09.557Z,2.00
2019-06-20T12:06:38.428Z,2.52
2019-06-20T12:09:06.817Z,2.27
2019-06-20T12:11:34.249Z,2.20
2019-06-20T12:14:01.641Z,2.30
2019-06-20T12:16:29.294Z,3.17
2019-06-20T12:18:56.713Z,3.17
2019-06-20T12:21:24.188Z,5.25
2019-06-20T12:23:51.630Z,4.37
2019-06-20T12:26:19.048Z,2.27
2019-06-20T12:28:46.682Z,2.00
2019-06-20T12:31:19.601Z,2.02
2019-06-20T12:33:45.050Z,3.47
2019-06-20T12:36:12.594Z,3.27
2019-06-20T12:38:41.076Z,4.20
2019-06-20T12:41:08.788Z,3.95
2019-06-20T12:43:37.347Z,3.52
2019-06-20T12:46:05.577Z,2.45
2019-06-20T12:48:33.010Z,3.85
2019-06-20T12:51:00.776Z,3.72
2019-06-20T12:53:28.194Z,2.00
2019-06-20T12:55:55.625Z,2.05
2019-06-20T12:58:23.041Z,6.28
2019-06-20T13:00:50.498Z,1.92
2019-06-20T13:03:17.950Z,2.72
2019-06-20T13:05:45.372Z,2.22
2019-06-20T13:08:13.638Z,1.90
2019-06-20T13:10:41.835Z,2.02
2019-06-20T13:13:09.712Z,2.12
2019-06-20T13:15:40.592Z,3.70
2019-06-20T13:18:08.794Z,2.95
2019-06-20T13:20:38.801Z,2.33
2019-06-20T13:23:05.883Z,3.00
2019-06-20T13:25:33.312Z,2.08
2019-06-20T13:28:00.742Z,2.15
2019-06-20T13:30:28.148Z,2.45
2019-06-20T13:32:55.811Z,2.62
2019-06-20T13:35:23.454Z,2.90
2019-06-20T13:37:50.929Z,2.83
2019-06-20T13:40:18.456Z,3.10
2019-06-20T13:42:46.226Z,3.27
2019-06-20T13:45:18.810Z,4.62
2019-06-20T13:47:46.286Z,2.62
2019-06-20T13:50:14.930Z,5.00
2019-06-20T13:52:44.860Z,3.70
2019-06-20T13:55:11.505Z,3.05
2019-06-20T13:57:41.184Z,4.62
2019-06-20T14:00:08.297Z,2.98
2019-06-20T14:02:35.717Z,2.77
2019-06-20T14:05:05.060Z,2.37
2019-06-20T14:07:32.486Z,3.45
2019-06-20T14:09:59.897Z,5.03
2019-06-20T14:12:27.320Z,2.98
2019-06-20T14:14:54.732Z,2.20
2019-06-20T14:17:22.152Z,3.70
2019-06-20T14:19:49.820Z,3.10
2019-06-20T14:22:17.243Z,2.25
2019-06-20T14:24:45.096Z,1.45
2019-06-20T14:27:12.768Z,2.40
2019-06-20T14:29:40.257Z,3.87
2019-06-20T14:32:21.509Z,1.90
2019-06-20T14:34:36.897Z,1.20
2019-06-20T14:37:04.318Z,1.42
2019-06-20T14:39:34.111Z,2.15
2019-06-20T14:42:00.869Z,2.75
2019-06-20T14:44:28.533Z,3.72
2019-06-20T14:46:56.212Z,3.70
2019-06-20T14:49:23.868Z,2.80
2019-06-20T14:51:52.430Z,2.10
2019-06-20T14:54:19.892Z,2.08
2019-06-20T14:56:47.943Z,3.92
2019-06-20T14:59:15.377Z,2.92
2019-06-20T15:01:44.581Z,3.60
2019-06-20T15:04:11.939Z,2.12
2019-06-20T15:06:39.599Z,2.30
2019-06-20T15:09:07.403Z,2.15
2019-06-20T15:11:35.069Z,2.35
2019-06-20T15:14:02.544Z,2.00
2019-06-20T15:16:29.987Z,2.65
2019-06-20T15:18:57.665Z,2.47
2019-06-20T15:21:25.228Z,3.15
2019-06-20T15:23:54.165Z,4.45
2019-06-20T15:26:22.183Z,4.92
2019-06-20T15:28:51.304Z,2.12
2019-06-20T15:31:18.846Z,5.42
2019-06-20T15:33:47.888Z,2.00
2019-06-20T15:36:15.479Z,3.65
2019-06-20T15:38:43.233Z,2.55
2019-06-20T15:41:12.527Z,3.10
2019-06-20T15:43:40.303Z,4.03
2019-06-20T15:46:07.743Z,7.30
2019-06-20T15:48:35.240Z,2.60
2019-06-20T15:51:02.918Z,3.02
2019-06-20T15:53:30.418Z,3.27
2019-06-20T15:55:57.837Z,3.10
2019-06-20T15:58:25.284Z,5.67
2019-06-20T16:00:52.691Z,6.37
2019-06-20T16:03:20.140Z,3.27
2019-06-20T16:05:47.847Z,2.20
2019-06-20T16:08:15.265Z,5.25
2019-06-20T16:10:42.681Z,4.10
2019-06-20T16:13:10.184Z,4.90
2019-06-20T16:15:37.604Z,7.80
2019-06-20T16:18:05.065Z,3.10
2019-06-20T16:20:32.488Z,5.30
2019-06-20T16:23:01.160Z,2.80
2019-06-20T16:25:28.620Z,3.08
2019-06-20T16:27:56.297Z,3.60
2019-06-20T16:30:24.046Z,2.62
2019-06-20T16:32:51.459Z,5.08
2019-06-20T16:35:18.898Z,4.97
2019-06-20T16:37:46.305Z,6.67
2019-06-20T16:40:14.806Z,3.77
2019-06-20T16:42:42.219Z,3.00
2019-06-20T16:45:09.808Z,3.52
2019-06-20T16:47:37.666Z,2.95
2019-06-20T16:50:05.660Z,3.10
2019-06-20T16:52:33.076Z,2.58
2019-06-20T16:55:00.497Z,5.30
2019-06-20T16:57:27.928Z,4.70
2019-06-20T16:59:57.641Z,2.87
2019-06-20T17:02:25.066Z,4.42
2019-06-20T17:04:56.333Z,3.27
2019-06-20T17:07:21.647Z,3.25
2019-06-20T17:09:49.385Z,2.50
2019-06-20T17:12:16.798Z,4.80
2019-06-20T17:14:44.237Z,5.05
2019-06-20T17:17:11.653Z,3.35
2019-06-20T17:19:42.068Z,2.67
2019-06-20T17:22:08.315Z,3.33
2019-06-20T17:24:35.777Z,2.92
2019-06-20T17:27:03.922Z,2.83
2019-06-20T17:29:31.347Z,3.90
2019-06-20T17:31:58.763Z,4.80
2019-06-20T17:34:26.202Z,3.75
2019-06-20T17:36:53.612Z,4.15
2019-06-20T17:39:21.245Z,4.75
2019-06-20T17:41:55.172Z,6.35
2019-06-20T17:44:18.054Z,5.25
2019-06-20T17:46:45.467Z,2.87
2019-06-20T17:49:13.138Z,5.05
2019-06-20T17:51:40.793Z,4.50
2019-06-20T17:54:08.219Z,3.92
2019-06-20T17:56:35.634Z,4.03
2019-06-20T17:59:03.318Z,6.20
2019-06-20T18:01:30.820Z,19.10
2019-06-20T18:04:12.853Z,4.37
2019-06-20T18:06:27.687Z,5.90
2019-06-20T18:08:55.133Z,3.72
2019-06-20T18:11:22.800Z,3.22
2019-06-20T18:13:53.251Z,3.55
2019-06-20T18:16:25.138Z,3.02
2019-06-20T18:18:49.865Z,3.60
2019-06-20T18:21:17.301Z,5.58
2019-06-20T18:23:44.766Z,7.70
2019-06-20T18:26:12.186Z,7.03
2019-06-20T18:28:39.664Z,8.40
2019-06-20T18:31:07.340Z,7.58
2019-06-20T18:33:34.994Z,7.08
2019-06-20T18:36:02.416Z,4.12
2019-06-20T18:38:29.833Z,5.35
2019-06-20T18:40:57.289Z,6.10
2019-06-20T18:43:24.781Z,7.20
2019-06-20T18:45:52.205Z,5.90
2019-06-20T18:48:19.886Z,5.75
2019-06-20T18:50:50.353Z,6.67
2019-06-20T18:53:17.772Z,6.50
2019-06-20T18:55:45.209Z,7.50
2019-06-20T18:58:12.869Z,9.08
2019-06-20T19:00:42.748Z,7.28
2019-06-20T19:03:10.170Z,6.72
2019-06-20T19:05:37.593Z,6.35
2019-06-20T19:08:05.017Z,5.40
2019-06-20T19:10:33.692Z,5.37
2019-06-20T19:13:01.578Z,6.87
2019-06-20T19:15:29.241Z,9.98
2019-06-20T19:17:56.660Z,5.80
2019-06-20T19:20:24.694Z,8.00
2019-06-20T19:22:52.384Z,6.62
2019-06-20T19:25:19.867Z,6.17
2019-06-20T19:27:47.272Z,6.42
2019-06-20T19:30:15.138Z,7.15
2019-06-20T19:32:42.788Z,5.65
2019-06-20T19:35:10.651Z,6.47
2019-06-20T19:37:38.120Z,8.23
2019-06-20T19:40:05.529Z,8.63
2019-06-20T19:42:33.274Z,5.17
2019-06-20T19:45:00.683Z,7.25
2019-06-20T19:47:28.363Z,10.88
2019-06-20T19:49:55.777Z,6.55
2019-06-20T19:52:23.283Z,4.42
2019-06-20T19:54:50.956Z,7.50
2019-06-20T19:57:18.363Z,5.08
2019-06-20T19:59:46.287Z,6.97
2019-06-20T20:02:13.714Z,5.62
2019-06-20T20:04:41.132Z,6.92
2019-06-20T20:07:08.548Z,6.15
2019-06-20T20:09:36.212Z,5.85
2019-06-20T20:12:05.125Z,10.70
2019-06-20T20:14:32.568Z,7.95
2019-06-20T20:16:59.993Z,8.30
2019-06-20T20:19:27.409Z,4.83
2019-06-20T20:21:55.400Z,7.30
2019-06-20T20:24:23.066Z,5.78
2019-06-20T20:26:50.486Z,6.03
2019-06-20T20:29:17.908Z,12.28
2019-06-20T20:31:45.321Z,11.05
2019-06-20T20:34:12.742Z,12.30
2019-06-20T20:36:40.450Z,11.75
2019-06-20T20:39:08.103Z,9.18
2019-06-20T20:41:35.530Z,9.70
2019-06-20T20:44:03.198Z,9.53
2019-06-20T20:46:30.693Z,5.53
2019-06-20T20:48:58.105Z,10.88
2019-06-20T20:51:25.529Z,11.68
2019-06-20T20:53:52.937Z,6.50
2019-06-20T20:56:20.387Z,8.68
2019-06-20T20:58:47.804Z,8.08
2019-06-20T21:01:24.389Z,5.97
2019-06-20T21:03:52.049Z,9.30
2019-06-20T21:06:19.489Z,7.70
2019-06-20T21:08:46.968Z,7.12
2019-06-20T21:11:14.554Z,6.33
2019-06-20T21:13:42.230Z,7.03
2019-06-20T21:16:09.655Z,7.97
2019-06-20T21:18:37.077Z,8.00
2019-06-20T21:21:04.502Z,6.35
2019-06-20T21:23:32.313Z,6.95
2019-06-20T21:25:59.741Z,7.58
2019-06-20T21:28:27.242Z,6.85
2019-06-20T21:30:54.673Z,11.03
2019-06-20T21:33:22.103Z,9.83
2019-06-20T21:35:49.517Z,13.00
2019-06-20T21:38:17.189Z,10.72
2019-06-20T21:40:44.681Z,9.18
2019-06-20T21:43:12.354Z,9.68
2019-06-20T21:45:39.765Z,10.03
2019-06-20T21:48:07.597Z,12.07
2019-06-20T21:50:35.019Z,10.68
2019-06-20T21:53:02.703Z,13.22
2019-06-20T21:55:30.433Z,10.18
2019-06-20T21:57:58.436Z,7.87
2019-06-20T22:00:32.049Z,9.90
2019-06-20T22:02:59.786Z,12.28
2019-06-20T22:05:27.199Z,10.13
2019-06-20T22:07:54.890Z,16.10
2019-06-20T22:10:22.306Z,7.33
2019-06-20T22:12:49.736Z,14.68
2019-06-20T22:15:17.151Z,12.07
2019-06-20T22:17:44.584Z,8.85
2019-06-20T22:20:12.242Z,12.95
2019-06-20T22:22:39.917Z,12.03
2019-06-20T22:25:07.330Z,10.75
2019-06-20T22:27:34.759Z,12.37
2019-06-20T22:30:04.290Z,6.65
2019-06-20T22:32:31.750Z,11.33
2019-06-20T22:34:59.158Z,6.03
2019-06-20T22:37:26.838Z,7.55
2019-06-20T22:39:54.258Z,14.28
2019-06-20T22:42:21.675Z,9.15
2019-06-20T22:44:49.338Z,5.50
2019-06-20T22:47:16.752Z,9.38
2019-06-20T22:49:44.194Z,9.70
2019-06-20T22:52:11.636Z,14.35
2019-06-20T22:54:39.361Z,7.75
2019-06-20T22:57:06.864Z,10.23
2019-06-20T22:59:34.537Z,7.80
2019-06-20T23:02:01.950Z,11.08
2019-06-20T23:04:29.390Z,7.25
2019-06-20T23:06:57.150Z,7.15
2019-06-20T23:09:27.302Z,6.35
2019-06-20T23:11:53.764Z,10.23
2019-06-20T23:14:21.459Z,7.45
2019-06-20T23:16:48.937Z,7.53
2019-06-20T23:19:16.368Z,9.73
2019-06-20T23:21:43.774Z,8.10
2019-06-20T23:24:11.276Z,4.10
2019-06-20T23:26:38.937Z,5.55
2019-06-20T23:29:06.371Z,7.30
2019-06-20T23:31:33.787Z,5.25
2019-06-20T23:34:01.208Z,4.00
2019-06-20T23:36:28.628Z,9.83
2019-06-20T23:38:57.232Z,4.87
2019-06-20T23:41:24.890Z,5.22
2019-06-20T23:43:52.312Z,8.78
2019-06-20T23:46:19.725Z,7.37
2019-06-20T23:48:47.395Z,8.68
2019-06-20T23:51:25.049Z,6.25
2019-06-20T23:53:43.968Z,3.75
2019-06-20T23:56:11.420Z,5.67
2019-06-20T23:58:38.914Z,3.62
